Terminal Aerodrome Forecast
Issued by NWS Charleston, SC

Home | Current Version | Previous Version | Text Only | Print | Product List | Glossary On
Versions: 1 2 3 4 5 6 7 8 9 10 11 12 13 14 15 16 17 18 19 20 21 22 23 24 25 26
000
FTUS42 KCHS 312100 AAD
TAFCHS
TAF AMD
KCHS 312159Z 3122/0118 VRB06KT P6SM VCTS SCT025CB SCT050 BKN150
      TEMPO 3122/3124 VRB15G20KT 2SM +TSRA SCT009 BKN019CB
     FM010100 VRB05KT P6SM VCSH SCT015 SCT035 BKN100
     FM011500 12008KT P6SM VCTS SCT020CB BKN040=

USA.gov is the U.S. government's official web portal to all federal, state and local government web resources and services.